createdAt,value
2019-03-30T00:01:16.590Z,68.40
2019-03-30T00:03:46.433Z,68.40
2019-03-30T00:06:16.405Z,68.90
2019-03-30T00:08:47.218Z,69.20
2019-03-30T00:11:17.154Z,69.20
2019-03-30T00:13:47.055Z,69.20
2019-03-30T00:16:16.877Z,68.80
2019-03-30T00:18:48.282Z,68.60
2019-03-30T00:21:18.170Z,68.50
2019-03-30T00:23:48.064Z,68.50
2019-03-30T00:26:17.932Z,69.10
2019-03-30T00:28:47.825Z,69.20
2019-03-30T00:31:17.733Z,69.50
2019-03-30T00:33:47.577Z,69.30
2019-03-30T00:36:17.553Z,69.20
2019-03-30T00:38:47.385Z,69.10
2019-03-30T00:41:17.261Z,69.10
2019-03-30T00:43:47.277Z,69.20
2019-03-30T00:46:17.762Z,69.10
2019-03-30T00:48:47.586Z,69.30
2019-03-30T00:51:17.871Z,69.20
2019-03-30T00:53:47.758Z,69.20
2019-03-30T00:56:17.588Z,69.60
2019-03-30T00:58:47.470Z,69.60
2019-03-30T01:01:17.919Z,69.60
2019-03-30T01:03:47.809Z,69.50
2019-03-30T01:06:17.767Z,69.70
2019-03-30T01:08:47.601Z,69.50
2019-03-30T01:11:17.568Z,69.50
2019-03-30T01:13:47.437Z,69.50
2019-03-30T01:16:17.397Z,69.30
2019-03-30T01:18:47.304Z,69.40
2019-03-30T01:21:17.237Z,69.50
2019-03-30T01:23:47.187Z,69.60
2019-03-30T01:26:17.192Z,69.60
2019-03-30T01:28:47.206Z,69.80
2019-03-30T01:31:18.625Z,70.00
2019-03-30T01:33:48.504Z,70.30
2019-03-30T01:36:18.464Z,70.20
2019-03-30T01:38:48.330Z,70.40
2019-03-30T01:41:18.248Z,70.40
2019-03-30T01:43:48.209Z,70.20
2019-03-30T01:46:18.057Z,69.60
2019-03-30T01:48:48.074Z,68.70
2019-03-30T01:51:18.065Z,68.60
2019-03-30T01:53:47.925Z,68.90
2019-03-30T01:56:17.886Z,68.80
2019-03-30T01:58:47.813Z,69.10
2019-03-30T02:01:17.737Z,69.30
2019-03-30T02:03:47.684Z,69.50
2019-03-30T02:06:17.683Z,69.60
2019-03-30T02:08:47.623Z,70.10
2019-03-30T02:11:17.593Z,70.20
2019-03-30T02:13:47.594Z,70.30
2019-03-30T02:16:17.497Z,70.60
2019-03-30T02:18:47.406Z,70.70
2019-03-30T02:21:17.344Z,71.20
2019-03-30T02:23:47.341Z,71.30
2019-03-30T02:26:17.273Z,71.30
2019-03-30T02:28:47.214Z,71.30
2019-03-30T02:31:17.106Z,71.40
2019-03-30T02:33:47.082Z,71.60
2019-03-30T02:36:17.073Z,71.20
2019-03-30T02:38:47.122Z,71.30
2019-03-30T02:41:17.425Z,71.50
2019-03-30T02:43:47.402Z,71.20
2019-03-30T02:46:17.267Z,71.40
2019-03-30T02:48:48.155Z,71.70
2019-03-30T02:51:18.019Z,71.60
2019-03-30T02:53:48.081Z,71.90
2019-03-30T02:56:19.018Z,72.20
2019-03-30T02:58:48.927Z,72.20
2019-03-30T03:01:18.909Z,71.90
2019-03-30T03:03:48.819Z,71.90
2019-03-30T03:06:18.803Z,71.60
2019-03-30T03:08:48.762Z,72.90
2019-03-30T03:11:18.774Z,72.10
2019-03-30T03:13:48.784Z,72.00
2019-03-30T03:16:19.230Z,71.80
2019-03-30T03:18:49.173Z,72.10
2019-03-30T03:21:19.142Z,72.10
2019-03-30T03:23:49.107Z,72.40
2019-03-30T03:26:19.042Z,72.50
2019-03-30T03:28:48.894Z,72.20
2019-03-30T03:31:18.872Z,72.10
2019-03-30T03:33:48.725Z,72.50
2019-03-30T03:36:18.694Z,72.90
2019-03-30T03:38:48.650Z,73.10
2019-03-30T03:41:18.625Z,73.10
2019-03-30T03:43:48.579Z,72.90
2019-03-30T03:46:18.533Z,72.60
2019-03-30T03:48:48.598Z,72.40
2019-03-30T03:51:26.046Z,72.60
2019-03-30T03:53:53.409Z,72.70
2019-03-30T03:56:25.866Z,72.50
2019-03-30T03:58:58.123Z,72.50
2019-03-30T04:01:30.862Z,72.90
2019-03-30T04:04:03.637Z,73.00
2019-03-30T04:06:34.200Z,72.70
2019-03-30T04:09:06.158Z,72.50
2019-03-30T04:11:38.616Z,72.70
2019-03-30T04:14:11.686Z,73.80
2019-03-30T04:16:41.661Z,72.90
2019-03-30T04:19:12.118Z,72.90
2019-03-30T04:21:44.224Z,73.20
2019-03-30T04:24:13.600Z,73.20
2019-03-30T04:26:43.466Z,73.10
2019-03-30T04:29:13.426Z,73.30
2019-03-30T04:31:43.408Z,74.30
2019-03-30T04:34:13.375Z,74.10
2019-03-30T04:36:44.263Z,74.00
2019-03-30T04:39:14.208Z,74.30
2019-03-30T04:41:44.179Z,73.90
2019-03-30T04:44:14.181Z,73.60
2019-03-30T04:46:44.111Z,73.40
2019-03-30T04:49:14.062Z,73.20
2019-03-30T04:51:56.930Z,73.30
2019-03-30T04:54:15.658Z,73.10
2019-03-30T04:56:45.501Z,73.10
2019-03-30T04:59:15.378Z,73.00
2019-03-30T05:01:45.365Z,73.00
2019-03-30T05:04:15.376Z,73.30
2019-03-30T05:06:45.925Z,73.10
2019-03-30T05:09:15.823Z,73.40
2019-03-30T05:11:45.807Z,73.50
2019-03-30T05:14:15.737Z,73.60
2019-03-30T05:16:45.709Z,73.30
2019-03-30T05:19:15.615Z,74.10
2019-03-30T05:21:45.526Z,74.10
2019-03-30T05:24:15.394Z,73.80
2019-03-30T05:26:45.361Z,73.70
2019-03-30T05:29:15.236Z,73.70
2019-03-30T05:31:45.143Z,74.30
2019-03-30T05:34:15.101Z,76.60
2019-03-30T05:36:45.009Z,76.70
2019-03-30T05:39:14.929Z,76.70
2019-03-30T05:41:44.826Z,77.60
2019-03-30T05:44:14.798Z,77.70
2019-03-30T05:46:44.729Z,77.10
2019-03-30T05:49:14.709Z,77.40
2019-03-30T05:51:44.613Z,76.50
2019-03-30T05:54:14.522Z,77.20
2019-03-30T05:56:44.446Z,77.80
2019-03-30T05:59:14.305Z,78.10
2019-03-30T06:01:44.389Z,78.20
2019-03-30T06:04:15.246Z,78.80
2019-03-30T06:06:45.226Z,78.90
2019-03-30T06:09:15.192Z,79.50
2019-03-30T06:11:45.168Z,79.70
2019-03-30T06:14:15.027Z,80.10
2019-03-30T06:16:44.991Z,80.70
2019-03-30T06:19:14.845Z,81.00
2019-03-30T06:21:44.813Z,81.50
2019-03-30T06:24:15.297Z,82.10
2019-03-30T06:26:45.261Z,81.70
2019-03-30T06:29:15.142Z,81.00
2019-03-30T06:31:46.705Z,80.90
2019-03-30T06:34:16.696Z,81.80
2019-03-30T06:36:46.686Z,81.80
2019-03-30T06:39:16.525Z,81.60
2019-03-30T06:41:46.455Z,81.10
2019-03-30T06:44:16.429Z,80.20
2019-03-30T06:46:46.262Z,79.90
2019-03-30T06:49:16.142Z,80.20
2019-03-30T06:51:45.999Z,78.90
2019-03-30T06:54:15.966Z,78.10
2019-03-30T06:56:45.799Z,79.20
2019-03-30T06:59:15.701Z,79.60
2019-03-30T07:01:46.633Z,79.30
2019-03-30T07:04:17.041Z,78.60
2019-03-30T07:06:48.413Z,78.80
2019-03-30T07:09:21.437Z,77.90
2019-03-30T07:11:52.586Z,77.60
2019-03-30T07:14:24.589Z,78.60
2019-03-30T07:16:56.926Z,78.50
2019-03-30T07:19:28.757Z,77.70
2019-03-30T07:21:58.576Z,75.90
2019-03-30T07:24:28.422Z,75.60
2019-03-30T07:26:58.394Z,75.50
2019-03-30T07:29:28.313Z,75.70
2019-03-30T07:31:58.202Z,75.30
2019-03-30T07:34:28.190Z,75.40
2019-03-30T07:36:58.146Z,74.30
2019-03-30T07:39:28.022Z,74.20
2019-03-30T07:41:57.989Z,73.90
2019-03-30T07:44:27.841Z,73.30
2019-03-30T07:46:57.719Z,71.40
2019-03-30T07:49:28.601Z,71.30
2019-03-30T07:51:58.677Z,71.20
2019-03-30T07:54:28.529Z,70.50
2019-03-30T07:57:05.065Z,70.50
2019-03-30T07:59:30.201Z,71.60
2019-03-30T08:02:00.113Z,70.90
2019-03-30T08:04:30.053Z,69.80
2019-03-30T08:06:59.942Z,69.30
2019-03-30T08:09:29.931Z,68.90
2019-03-30T08:12:00.109Z,68.20
2019-03-30T08:14:30.003Z,69.40
2019-03-30T08:17:00.063Z,68.80
2019-03-30T08:19:29.920Z,68.70
2019-03-30T08:21:59.928Z,68.80
2019-03-30T08:24:29.851Z,68.90
2019-03-30T08:26:59.790Z,67.90
2019-03-30T08:29:29.737Z,66.60
2019-03-30T08:31:59.708Z,65.90
2019-03-30T08:34:29.685Z,66.70
2019-03-30T08:36:59.587Z,66.80
2019-03-30T08:39:29.590Z,66.20
2019-03-30T08:41:59.521Z,65.50
2019-03-30T08:44:29.537Z,65.80
2019-03-30T08:46:59.372Z,66.50
2019-03-30T08:49:29.261Z,64.90
2019-03-30T08:51:59.129Z,64.10
2019-03-30T08:54:28.966Z,63.30
2019-03-30T08:56:58.921Z,63.90
2019-03-30T08:59:28.823Z,63.80
2019-03-30T09:01:58.715Z,63.10
2019-03-30T09:04:28.604Z,61.40
2019-03-30T09:06:58.704Z,60.90
2019-03-30T09:09:33.291Z,62.60
2019-03-30T09:12:03.386Z,62.20
2019-03-30T09:14:33.322Z,62.30
2019-03-30T09:17:03.374Z,60.60
2019-03-30T09:19:33.417Z,62.80
2019-03-30T09:22:04.609Z,62.80
2019-03-30T09:24:34.626Z,59.90
2019-03-30T09:27:04.498Z,61.60
2019-03-30T09:29:34.467Z,62.60
2019-03-30T09:32:14.120Z,60.50
2019-03-30T09:34:36.213Z,61.00
2019-03-30T09:37:06.129Z,60.50
2019-03-30T09:39:36.072Z,60.60
2019-03-30T09:42:07.053Z,59.90
2019-03-30T09:44:37.025Z,57.90
2019-03-30T09:47:06.892Z,57.20
2019-03-30T09:49:36.798Z,59.20
2019-03-30T09:52:06.874Z,58.60
2019-03-30T09:54:36.721Z,57.90
2019-03-30T09:57:06.698Z,56.80
2019-03-30T09:59:36.553Z,55.70
2019-03-30T10:02:07.618Z,55.50
2019-03-30T10:04:37.647Z,56.50
2019-03-30T10:07:07.610Z,55.80
2019-03-30T10:09:37.542Z,56.50
2019-03-30T10:12:07.456Z,56.10
2019-03-30T10:14:37.441Z,52.40
2019-03-30T10:17:07.298Z,49.50
2019-03-30T10:19:37.351Z,50.00
2019-03-30T10:22:07.387Z,49.80
2019-03-30T10:24:38.623Z,49.90
2019-03-30T10:27:09.217Z,47.60
2019-03-30T10:29:39.318Z,46.50
2019-03-30T10:32:09.349Z,50.30
2019-03-30T10:34:39.714Z,48.90
2019-03-30T10:37:10.336Z,49.30
2019-03-30T10:39:40.222Z,47.40
2019-03-30T10:42:10.186Z,48.40
2019-03-30T10:44:40.175Z,48.40
2019-03-30T10:47:10.321Z,48.20
2019-03-30T10:49:40.265Z,47.20
2019-03-30T10:52:10.238Z,45.50
2019-03-30T10:54:51.987Z,44.20
2019-03-30T10:57:11.831Z,43.80
2019-03-30T10:59:41.942Z,44.40
2019-03-30T11:02:11.801Z,43.80
2019-03-30T11:04:41.807Z,44.10
2019-03-30T11:07:11.745Z,40.60
2019-03-30T11:09:41.710Z,41.00
2019-03-30T11:12:11.677Z,40.90
2019-03-30T11:14:41.605Z,39.70
2019-03-30T11:17:11.501Z,42.40
2019-03-30T11:19:41.572Z,40.70
2019-03-30T11:22:11.452Z,40.80
2019-03-30T11:24:41.409Z,39.40
2019-03-30T11:27:11.266Z,39.00
2019-03-30T11:29:41.229Z,41.80
2019-03-30T11:32:11.097Z,39.00
2019-03-30T11:34:41.070Z,38.70
2019-03-30T11:37:11.086Z,38.80
2019-03-30T11:39:40.944Z,40.40
2019-03-30T11:42:10.962Z,39.40
2019-03-30T11:44:40.969Z,39.70
2019-03-30T11:47:10.993Z,38.30
2019-03-30T11:49:40.965Z,38.00
2019-03-30T11:52:10.817Z,38.50
2019-03-30T11:54:40.797Z,37.70
2019-03-30T11:57:11.626Z,38.60
2019-03-30T11:59:41.529Z,36.30
2019-03-30T12:02:11.524Z,36.90
2019-03-30T12:04:41.470Z,39.00
2019-03-30T12:07:11.381Z,38.00
2019-03-30T12:09:41.285Z,36.10
2019-03-30T12:12:11.226Z,36.80
2019-03-30T12:14:41.193Z,37.80
2019-03-30T12:17:11.259Z,39.00
2019-03-30T12:19:41.157Z,35.20
2019-03-30T12:22:11.051Z,35.80
2019-03-30T12:24:40.999Z,34.10
2019-03-30T12:27:11.105Z,31.40
2019-03-30T12:29:44.389Z,34.00
2019-03-30T12:32:12.846Z,34.10
2019-03-30T12:34:42.793Z,36.20
2019-03-30T13:33:27.921Z,30.10
2019-03-30T13:35:57.877Z,30.00
2019-03-30T13:38:27.709Z,30.60
2019-03-30T13:40:57.626Z,29.20
2019-03-30T13:43:27.540Z,30.40
2019-03-30T13:45:58.508Z,29.90
2019-03-30T13:48:29.454Z,29.80
2019-03-30T13:51:00.474Z,28.20
2019-03-30T13:53:30.586Z,30.50
2019-03-30T13:56:00.529Z,29.70
2019-03-30T13:58:30.373Z,28.40
2019-03-30T14:01:00.427Z,26.90
2019-03-30T14:03:30.429Z,27.20
2019-03-30T14:06:00.293Z,26.90
2019-03-30T14:08:30.254Z,26.70
2019-03-30T14:11:00.257Z,26.60
2019-03-30T14:13:30.186Z,27.30
2019-03-30T14:16:00.158Z,26.60
2019-03-30T14:18:30.076Z,25.90
2019-03-30T14:20:59.970Z,25.80
2019-03-30T14:23:30.025Z,26.60
2019-03-30T14:26:00.584Z,26.90
2019-03-30T14:28:30.597Z,26.60
2019-03-30T14:31:00.541Z,27.50
2019-03-30T14:33:30.485Z,26.30
2019-03-30T14:36:02.099Z,27.00
2019-03-30T14:38:32.156Z,28.40
2019-03-30T14:41:03.917Z,27.70
2019-03-30T14:43:34.595Z,26.80
2019-03-30T14:46:04.525Z,27.00
2019-03-30T14:48:35.449Z,25.60
2019-03-30T14:51:06.525Z,27.70
2019-03-30T14:53:36.597Z,25.90
2019-03-30T14:56:07.686Z,27.60
2019-03-30T14:58:37.669Z,27.40
2019-03-30T15:01:08.309Z,26.90
2019-03-30T15:03:38.280Z,27.50
2019-03-30T15:06:08.182Z,26.60
2019-03-30T15:08:38.177Z,26.90
2019-03-30T15:11:08.185Z,26.00
2019-03-30T15:13:39.357Z,26.30
2019-03-30T15:16:09.348Z,25.90
2019-03-30T15:18:39.492Z,26.00
2019-03-30T15:21:10.125Z,26.00
2019-03-30T15:23:40.230Z,25.60
2019-03-30T15:26:11.189Z,26.30
2019-03-30T15:28:42.803Z,25.80
2019-03-30T15:31:12.788Z,25.50
2019-03-30T15:33:43.739Z,24.80
2019-03-30T15:36:13.617Z,26.10
2019-03-30T15:38:44.607Z,26.60
2019-03-30T15:41:14.543Z,26.50
2019-03-30T15:43:44.398Z,26.20
2019-03-30T15:46:14.516Z,26.10
2019-03-30T15:48:44.962Z,25.90
2019-03-30T15:51:15.909Z,26.00
2019-03-30T15:53:45.912Z,26.80
2019-03-30T15:56:16.414Z,26.60
2019-03-30T15:58:47.305Z,27.00
2019-03-30T16:01:17.271Z,27.60
2019-03-30T16:03:48.363Z,28.30
2019-03-30T16:06:19.325Z,28.90
2019-03-30T16:08:49.346Z,29.30
2019-03-30T16:11:19.291Z,30.00
2019-03-30T16:13:50.233Z,30.70
2019-03-30T16:16:20.122Z,31.00
2019-03-30T16:18:50.163Z,31.40
2019-03-30T16:21:20.188Z,33.20
2019-03-30T16:23:50.125Z,32.80
2019-03-30T16:26:20.076Z,33.50
2019-03-30T16:28:49.969Z,34.60
2019-03-30T16:31:19.892Z,34.70
2019-03-30T16:33:49.753Z,36.20
2019-03-30T16:36:19.638Z,35.70
2019-03-30T16:38:50.560Z,36.20
2019-03-30T16:41:20.402Z,37.10
2019-03-30T16:43:50.317Z,37.60
2019-03-30T16:46:20.253Z,38.90
2019-03-30T16:48:50.161Z,39.90
2019-03-30T16:51:19.997Z,40.10
2019-03-30T16:53:50.003Z,40.90
2019-03-30T16:56:20.433Z,41.60
2019-03-30T16:58:50.695Z,41.10
2019-03-30T17:01:21.050Z,41.70
2019-03-30T17:03:50.948Z,41.50
2019-03-30T17:06:20.926Z,42.30
2019-03-30T17:08:51.454Z,42.50
2019-03-30T17:11:21.346Z,43.00
2019-03-30T17:13:51.227Z,44.20
2019-03-30T17:16:21.074Z,45.20
2019-03-30T17:18:50.973Z,45.60
2019-03-30T17:21:20.932Z,44.30
2019-03-30T17:23:52.924Z,44.80
2019-03-30T17:26:22.774Z,45.00
2019-03-30T17:28:52.686Z,45.90
2019-03-30T17:31:22.581Z,45.60
2019-03-30T17:33:52.549Z,45.80
2019-03-30T17:36:22.432Z,46.00
2019-03-30T17:38:52.538Z,46.40
2019-03-30T17:41:22.372Z,46.80
2019-03-30T17:44:11.263Z,47.00
2019-03-30T17:46:41.113Z,47.60
2019-03-30T17:49:10.951Z,47.50
2019-03-30T17:51:40.869Z,48.00
2019-03-30T17:54:10.756Z,48.00
2019-03-30T17:56:40.657Z,48.40
2019-03-30T17:59:10.553Z,48.80
2019-03-30T18:01:40.405Z,49.60
2019-03-30T18:04:10.331Z,49.90
2019-03-30T18:06:40.190Z,50.60
2019-03-30T18:09:11.205Z,49.00
2019-03-30T18:11:41.064Z,49.00
2019-03-30T18:14:10.916Z,49.20
2019-03-30T18:16:42.015Z,49.80
2019-03-30T18:19:11.919Z,50.20
2019-03-30T18:21:41.769Z,50.50
2019-03-30T18:24:11.656Z,50.50
2019-03-30T18:26:41.498Z,50.00
2019-03-30T18:29:11.397Z,50.20
2019-03-30T18:31:42.286Z,50.20
2019-03-30T18:34:12.221Z,50.50
2019-03-30T18:36:42.817Z,50.70
2019-03-30T18:39:12.720Z,51.40
2019-03-30T18:41:42.636Z,51.70
2019-03-30T18:44:12.559Z,51.00
2019-03-30T18:46:42.473Z,51.20
2019-03-30T18:49:12.423Z,50.60
2019-03-30T18:51:44.893Z,50.70
2019-03-30T18:54:17.222Z,51.00
2019-03-30T18:56:47.129Z,51.30
2019-03-30T18:59:16.977Z,52.10
2019-03-30T19:01:48.893Z,52.30
2019-03-30T19:04:18.739Z,52.30
2019-03-30T19:06:49.729Z,51.70
2019-03-30T19:09:19.554Z,51.70
2019-03-30T19:11:49.446Z,52.40
2019-03-30T19:14:19.285Z,52.90
2019-03-30T19:16:49.239Z,53.00
2019-03-30T19:19:19.120Z,53.50
2019-03-30T19:21:48.961Z,53.70
2019-03-30T19:24:18.853Z,54.10
2019-03-30T19:26:48.827Z,54.20
2019-03-30T19:29:18.669Z,54.70
2019-03-30T19:31:48.559Z,53.80
2019-03-30T19:34:18.454Z,54.10
2019-03-30T19:36:48.295Z,54.00
2019-03-30T19:39:18.143Z,54.40
2019-03-30T19:41:48.047Z,54.60
2019-03-30T19:44:17.965Z,54.50
2019-03-30T19:46:47.890Z,54.50
2019-03-30T19:49:17.726Z,54.60
2019-03-30T19:51:47.567Z,54.70
2019-03-30T19:54:17.467Z,54.80
2019-03-30T19:56:47.310Z,55.30
2019-03-30T19:59:17.198Z,55.60
2019-03-30T20:01:47.101Z,55.40
2019-03-30T20:04:16.953Z,55.40
2019-03-30T20:06:46.852Z,55.40
2019-03-30T20:09:16.798Z,55.30
2019-03-30T20:11:46.661Z,55.30
2019-03-30T20:14:16.581Z,55.40
2019-03-30T20:16:46.573Z,55.60
2019-03-30T20:19:16.419Z,55.80
2019-03-30T20:21:46.312Z,55.80
2019-03-30T20:24:16.350Z,55.80
2019-03-30T20:26:46.352Z,55.90
2019-03-30T20:29:25.082Z,55.60
2019-03-30T20:31:47.870Z,56.00
2019-03-30T20:34:17.706Z,57.20
2019-03-30T20:36:47.700Z,57.30
2019-03-30T20:39:17.610Z,57.80
2019-03-30T20:41:47.498Z,58.50
2019-03-30T20:44:17.339Z,58.90
2019-03-30T20:46:47.240Z,59.20
2019-03-30T20:49:17.541Z,59.40
2019-03-30T20:51:47.481Z,59.50
2019-03-30T20:54:17.355Z,59.20
2019-03-30T20:56:47.265Z,59.20
2019-03-30T20:59:17.249Z,59.20
2019-03-30T21:01:47.096Z,59.50
2019-03-30T21:04:16.922Z,59.70
2019-03-30T21:06:46.810Z,59.70
2019-03-30T21:09:16.654Z,59.20
2019-03-30T21:11:46.547Z,59.10
2019-03-30T21:14:16.393Z,59.30
2019-03-30T21:16:46.702Z,59.60
2019-03-30T21:19:16.610Z,59.90
2019-03-30T21:21:46.793Z,61.00
2019-03-30T21:24:16.636Z,62.90
2019-03-30T21:26:46.650Z,62.50
2019-03-30T21:29:16.498Z,62.70
2019-03-30T21:31:49.102Z,63.70
2019-03-30T21:34:18.055Z,63.30
2019-03-30T21:36:47.950Z,63.00
2019-03-30T21:39:17.846Z,62.40
2019-03-30T21:41:47.858Z,62.50
2019-03-30T21:44:22.337Z,62.10
2019-03-30T21:46:49.328Z,61.60
2019-03-30T21:49:19.274Z,61.20
2019-03-30T21:51:49.114Z,60.90
2019-03-30T21:54:19.001Z,60.80
2019-03-30T21:56:48.849Z,60.30
2019-03-30T21:59:19.834Z,60.80
2019-03-30T22:01:49.721Z,60.70
2019-03-30T22:04:19.641Z,60.50
2019-03-30T22:06:49.537Z,60.20
2019-03-30T22:09:19.379Z,59.80
2019-03-30T22:11:49.259Z,59.60
2019-03-30T22:14:19.093Z,59.50
2019-03-30T22:16:49.009Z,59.30
2019-03-30T22:19:18.844Z,59.10
2019-03-30T22:21:48.731Z,58.90
2019-03-30T22:24:18.601Z,59.00
2019-03-30T22:26:48.430Z,59.40
2019-03-30T22:29:18.402Z,59.80
2019-03-30T22:31:48.279Z,60.30
2019-03-30T22:34:19.232Z,62.30
2019-03-30T22:36:49.109Z,61.80
2019-03-30T22:39:19.066Z,62.30
2019-03-30T22:41:50.025Z,62.60
2019-03-30T22:44:20.897Z,62.70
2019-03-30T22:46:50.865Z,63.10
2019-03-30T22:49:21.857Z,63.30
2019-03-30T22:51:51.919Z,63.40
2019-03-30T22:54:21.900Z,63.40
2019-03-30T22:56:51.957Z,63.50
2019-03-30T22:59:21.817Z,64.20
2019-03-30T23:01:51.807Z,63.50
2019-03-30T23:04:21.693Z,63.70
2019-03-30T23:06:52.618Z,63.40
2019-03-30T23:09:22.560Z,63.90
2019-03-30T23:11:52.474Z,63.60
2019-03-30T23:14:23.358Z,63.40
2019-03-30T23:16:53.314Z,63.90
2019-03-30T23:19:23.149Z,64.30
2019-03-30T23:21:53.041Z,64.40
2019-03-30T23:24:22.885Z,64.70
2019-03-30T23:26:52.762Z,65.30
2019-03-30T23:29:22.605Z,65.90
2019-03-30T23:31:52.595Z,66.10
2019-03-30T23:34:22.458Z,66.00
2019-03-30T23:36:52.413Z,66.60
2019-03-30T23:39:22.249Z,67.50
2019-03-30T23:41:52.173Z,69.10
2019-03-30T23:44:22.061Z,68.60
2019-03-30T23:46:51.906Z,69.00
2019-03-30T23:49:21.816Z,68.60
2019-03-30T23:51:51.804Z,68.20
2019-03-30T23:54:21.695Z,67.90
2019-03-30T23:56:51.529Z,67.90
2019-03-30T23:59:21.501Z,68.20
